KCON

Concord Municipal Airport

Concord, New Hampshire, USA
METAR KCON 242051Z AUTO 12006KT 10SM CLR 13/04 A3059 RMK AO2 SLP359 T01330044 55004
Observed Flight Rules
Sep-24 @ 20:51 UTC (33 minutes ago) Visual Flight Rules
Wind Visibility Clouds
120° at 6 knots 10 miles
  • Clear skies
Temperatures Readings
Current 13°C / 55°F
Dewpoint 4°C / 39°F
Humidity 55%
Altimeter 30.59" Hg
Pressure 1035.9 hPa
Elevation 103
METAR KCON 242051Z AUTO 12006KT 10SM CLR 13/04 A3059 RMK AO2 SLP359 T01330044 55004
Observed Flight Rules
Sep-24 @ 20:51 UTC
(33 minutes ago)
VFR
Wind Visibility
120° at 6 knots 10 miles
Clouds
  • Clear skies
Temperature Dewpoint
13°C / 55°F 4°C / 39°F
Humidity Altimeter Pressure
55% 30.59" Hg 1035.9 hPa